createdAt,value
2022-10-05T00:00:12.742Z,67.50
2022-10-05T00:02:39.289Z,67.40
2022-10-05T00:05:14.008Z,67.40
2022-10-05T00:07:40.522Z,67.40
2022-10-05T00:10:11.522Z,67.40
2022-10-05T00:12:37.990Z,67.50
2022-10-05T00:15:09.989Z,67.50
2022-10-05T00:17:36.462Z,67.50
2022-10-05T00:20:14.029Z,67.40
2022-10-05T00:22:40.478Z,67.40
2022-10-05T00:25:11.773Z,67.40
2022-10-05T00:27:38.837Z,67.30
2022-10-05T00:30:13.893Z,67.40
2022-10-05T00:32:40.433Z,67.30
2022-10-05T00:35:07.234Z,67.20
2022-10-05T00:37:33.808Z,67.40
2022-10-05T00:40:00.496Z,67.30
2022-10-05T00:42:45.708Z,67.30
2022-10-05T00:45:18.184Z,67.30
2022-10-05T00:48:03.217Z,67.30
2022-10-05T00:50:48.593Z,67.30
2022-10-05T00:53:32.861Z,67.30
2022-10-05T00:55:59.301Z,67.20
2022-10-05T00:58:36.968Z,67.20
2022-10-05T01:01:12.558Z,67.20
2022-10-05T01:03:48.163Z,67.30
2022-10-05T01:06:23.748Z,67.20
2022-10-05T01:09:08.834Z,67.20
2022-10-05T01:11:39.473Z,67.30
2022-10-05T01:14:32.027Z,67.30
2022-10-05T01:17:20.299Z,67.20
2022-10-05T01:20:05.528Z,67.20
2022-10-05T01:22:49.572Z,67.20
2022-10-05T01:25:28.133Z,67.20
2022-10-05T01:28:01.216Z,67.20
2022-10-05T01:30:29.519Z,67.30
2022-10-05T01:33:01.539Z,67.20
2022-10-05T01:35:30.754Z,67.20
2022-10-05T01:38:15.198Z,67.20
2022-10-05T01:40:44.433Z,67.20
2022-10-05T01:43:13.887Z,67.30
2022-10-05T01:46:00.329Z,67.20
2022-10-05T01:48:38.896Z,67.20
2022-10-05T01:51:23.571Z,67.20
2022-10-05T01:53:50.026Z,67.20
2022-10-05T01:56:25.074Z,67.10
2022-10-05T01:59:15.960Z,67.20
2022-10-05T02:01:49.715Z,67.10
2022-10-05T02:04:59.825Z,67.10
2022-10-05T02:07:20.758Z,67.20
2022-10-05T02:09:51.896Z,67.20
2022-10-05T02:12:19.697Z,67.20
2022-10-05T02:14:49.084Z,67.10
2022-10-05T02:17:38.687Z,67.10
2022-10-05T02:20:07.333Z,67.20
2022-10-05T02:22:35.590Z,67.00
2022-10-05T02:25:10.054Z,67.10
2022-10-05T02:27:39.036Z,67.10
2022-10-05T02:30:10.435Z,67.10
2022-10-05T02:32:59.588Z,67.10
2022-10-05T02:35:26.316Z,67.00
2022-10-05T02:37:54.337Z,67.00
2022-10-05T02:40:31.660Z,67.00
2022-10-05T02:43:17.045Z,67.00
2022-10-05T02:45:52.391Z,67.00
2022-10-05T02:48:36.515Z,67.00
2022-10-05T02:51:15.284Z,67.00
2022-10-05T02:53:47.898Z,67.00
2022-10-05T02:56:35.063Z,67.00
2022-10-05T02:59:14.310Z,66.90
2022-10-05T03:01:48.439Z,66.90
2022-10-05T03:04:14.897Z,66.90
2022-10-05T03:06:50.288Z,67.70
2022-10-05T03:09:20.413Z,66.90
2022-10-05T03:11:51.535Z,66.90
2022-10-05T03:14:47.641Z,66.90
2022-10-05T03:17:25.335Z,66.90
2022-10-05T03:20:10.591Z,66.90
2022-10-05T03:22:58.216Z,66.90
2022-10-05T03:25:39.828Z,66.90
2022-10-05T03:28:24.793Z,66.80
2022-10-05T03:31:00.669Z,66.80
2022-10-05T03:33:47.562Z,66.80
2022-10-05T03:36:24.608Z,66.70
2022-10-05T03:38:59.924Z,66.70
2022-10-05T03:41:47.109Z,66.70
2022-10-05T03:44:32.109Z,66.70
2022-10-05T03:47:11.425Z,66.70
2022-10-05T03:49:49.355Z,66.70
2022-10-05T03:52:15.799Z,66.70
2022-10-05T03:54:44.729Z,66.70
2022-10-05T03:57:13.763Z,66.70
2022-10-05T03:59:45.613Z,66.80
2022-10-05T04:02:24.330Z,66.70
2022-10-05T04:04:54.700Z,66.70
2022-10-05T04:07:30.361Z,66.70
2022-10-05T04:09:57.830Z,61.70
2022-10-05T04:12:27.071Z,58.60
2022-10-05T04:14:54.589Z,59.70
2022-10-05T04:17:42.403Z,60.80
2022-10-05T04:20:30.696Z,61.50
2022-10-05T04:23:15.741Z,62.50
2022-10-05T04:25:48.541Z,62.40
2022-10-05T04:28:33.875Z,62.80
2022-10-05T04:31:02.636Z,62.80
2022-10-05T04:33:29.239Z,63.10
2022-10-05T04:36:08.048Z,63.40
2022-10-05T04:38:44.596Z,63.90
2022-10-05T04:41:29.686Z,64.30
2022-10-05T04:44:14.933Z,63.80
2022-10-05T04:46:44.645Z,64.30
2022-10-05T04:49:17.433Z,62.50
2022-10-05T04:51:51.471Z,64.20
2022-10-05T04:54:33.295Z,63.20
2022-10-05T04:57:01.842Z,63.20
2022-10-05T04:59:47.193Z,63.50
2022-10-05T05:02:31.659Z,63.70
2022-10-05T05:04:58.092Z,64.00
2022-10-05T05:07:43.389Z,64.20
2022-10-05T05:10:25.044Z,64.40
2022-10-05T05:13:10.651Z,64.60
2022-10-05T05:15:56.541Z,64.80
2022-10-05T05:18:32.092Z,65.00
2022-10-05T05:21:17.280Z,65.10
2022-10-05T05:24:02.317Z,65.00
2022-10-05T05:26:38.853Z,65.20
2022-10-05T05:29:13.141Z,65.10
2022-10-05T05:32:05.073Z,65.20
2022-10-05T05:34:41.615Z,65.30
2022-10-05T05:37:14.905Z,65.30
2022-10-05T05:39:41.344Z,65.20
2022-10-05T05:42:10.705Z,65.50
2022-10-05T05:44:42.176Z,65.50
2022-10-05T05:47:20.598Z,65.60
2022-10-05T05:50:07.789Z,65.60
2022-10-05T05:52:38.452Z,66.30
2022-10-05T05:55:07.870Z,66.00
2022-10-05T05:57:38.602Z,66.20
2022-10-05T06:00:07.277Z,66.40
2022-10-05T06:02:46.423Z,66.50
2022-10-05T06:05:31.815Z,66.80
2022-10-05T06:08:00.531Z,66.80
2022-10-05T06:10:41.648Z,66.90
2022-10-05T06:13:16.579Z,67.10
2022-10-05T06:15:49.437Z,67.20
2022-10-05T06:18:18.392Z,67.10
2022-10-05T06:20:54.377Z,67.50
2022-10-05T06:23:34.378Z,67.50
2022-10-05T06:26:11.080Z,67.40
2022-10-05T06:28:37.907Z,67.60
2022-10-05T06:31:16.544Z,67.50
2022-10-05T06:33:46.952Z,67.60
2022-10-05T06:36:37.933Z,67.70
2022-10-05T06:39:15.567Z,67.60
2022-10-05T06:41:42.028Z,67.50
2022-10-05T06:44:10.440Z,67.50
2022-10-05T06:46:55.753Z,67.50
2022-10-05T06:49:29.996Z,67.50
2022-10-05T06:52:02.625Z,67.50
2022-10-05T06:54:37.910Z,67.50
2022-10-05T06:57:04.350Z,67.50
2022-10-05T06:59:39.651Z,67.50
2022-10-05T07:02:09.232Z,67.40
2022-10-05T07:04:48.048Z,67.30
2022-10-05T07:07:19.981Z,67.30
2022-10-05T07:10:04.961Z,67.30
2022-10-05T07:12:49.857Z,67.30
2022-10-05T07:15:25.281Z,67.30
2022-10-05T07:17:57.613Z,67.20
2022-10-05T07:20:46.937Z,67.30
2022-10-05T07:23:24.672Z,67.20
2022-10-05T07:26:00.284Z,67.30
2022-10-05T07:28:45.149Z,67.20
2022-10-05T07:31:15.694Z,67.20
2022-10-05T07:33:53.313Z,67.20
2022-10-05T07:36:42.875Z,67.10
2022-10-05T07:39:41.987Z,67.20
2022-10-05T07:42:18.916Z,67.10
2022-10-05T07:44:52.441Z,67.10
2022-10-05T07:47:18.912Z,67.20
2022-10-05T07:49:49.252Z,67.10
2022-10-05T07:52:20.097Z,67.10
2022-10-05T07:54:46.585Z,67.10
2022-10-05T07:57:23.349Z,67.00
2022-10-05T07:59:58.040Z,67.00
2022-10-05T08:02:38.858Z,66.90
2022-10-05T08:05:10.402Z,67.00
2022-10-05T08:07:37.133Z,67.00
2022-10-05T08:10:22.751Z,67.00
2022-10-05T08:13:01.482Z,67.00
2022-10-05T08:15:31.490Z,67.00
2022-10-05T08:18:00.980Z,67.00
2022-10-05T08:20:38.503Z,66.90
2022-10-05T08:23:12.005Z,66.90
2022-10-05T08:25:38.645Z,66.90
2022-10-05T08:28:10.131Z,66.80
2022-10-05T08:30:48.108Z,66.90
2022-10-05T08:33:16.705Z,66.90
2022-10-05T08:35:49.997Z,66.90
2022-10-05T08:38:18.404Z,66.90
2022-10-05T08:40:59.981Z,66.90
2022-10-05T08:43:45.597Z,66.80
2022-10-05T08:46:18.531Z,66.90
2022-10-05T08:48:50.897Z,66.70
2022-10-05T08:51:36.196Z,66.90
2022-10-05T08:54:02.638Z,66.90
2022-10-05T08:56:29.206Z,66.90
2022-10-05T08:59:04.885Z,66.90
2022-10-05T09:01:34.356Z,66.80
2022-10-05T09:04:09.925Z,66.90
2022-10-05T09:07:00.780Z,66.90
2022-10-05T09:09:36.433Z,66.90
2022-10-05T09:12:21.720Z,66.80
2022-10-05T09:15:24.793Z,66.90
2022-10-05T09:18:11.176Z,66.80
2022-10-05T09:20:49.485Z,66.70
2022-10-05T09:23:22.030Z,66.60
2022-10-05T09:26:01.302Z,66.70
2022-10-05T09:28:31.402Z,66.60
2022-10-05T09:31:03.869Z,66.70
2022-10-05T09:33:42.595Z,66.70
2022-10-05T09:36:19.165Z,66.70
2022-10-05T09:38:56.676Z,66.70
2022-10-05T09:41:32.081Z,66.70
2022-10-05T09:44:25.442Z,66.50
2022-10-05T09:47:10.568Z,66.60
2022-10-05T09:49:43.058Z,66.60
2022-10-05T09:52:29.133Z,66.60
2022-10-05T09:55:14.453Z,66.50
2022-10-05T09:57:49.357Z,66.60
2022-10-05T10:00:22.206Z,66.50
2022-10-05T10:03:27.432Z,66.40
2022-10-05T10:06:11.054Z,66.60
2022-10-05T10:08:51.868Z,66.40
2022-10-05T10:11:25.232Z,66.60
2022-10-05T10:14:13.171Z,66.50
2022-10-05T10:16:58.045Z,66.50
2022-10-05T10:19:35.865Z,66.50
2022-10-05T10:22:21.114Z,66.40
2022-10-05T10:24:54.875Z,66.50
2022-10-05T10:27:24.148Z,66.60
2022-10-05T10:30:00.518Z,66.60
2022-10-05T10:32:45.134Z,66.50
2022-10-05T10:35:11.583Z,66.50
2022-10-05T10:37:58.431Z,66.50
2022-10-05T10:40:29.432Z,66.40
2022-10-05T10:42:59.111Z,66.50
2022-10-05T10:45:28.613Z,66.50
2022-10-05T10:47:55.081Z,66.50
2022-10-05T10:50:43.605Z,66.50
2022-10-05T10:53:22.236Z,66.60
2022-10-05T10:56:03.997Z,66.50
2022-10-05T10:58:43.734Z,66.40
2022-10-05T11:01:13.400Z,66.50
2022-10-05T11:03:56.479Z,66.50
2022-10-05T11:06:32.959Z,66.40
2022-10-05T11:09:14.528Z,66.40
2022-10-05T11:12:05.505Z,66.30
2022-10-05T11:14:47.293Z,66.40
2022-10-05T11:17:33.374Z,66.40
2022-10-05T11:20:05.706Z,66.40
2022-10-05T11:22:39.276Z,66.30
2022-10-05T11:25:05.721Z,66.40
2022-10-05T11:27:34.997Z,66.30
2022-10-05T11:30:16.812Z,66.30
2022-10-05T11:32:43.304Z,66.40
2022-10-05T11:35:16.077Z,66.30
2022-10-05T11:37:52.503Z,66.30
2022-10-05T11:40:33.093Z,66.30
2022-10-05T11:43:16.507Z,66.40
2022-10-05T11:46:01.958Z,66.30
2022-10-05T11:48:35.623Z,66.20
2022-10-05T11:51:02.076Z,66.30
2022-10-05T11:53:38.733Z,66.20
2022-10-05T11:56:11.458Z,66.20
2022-10-05T11:58:42.839Z,66.30
2022-10-05T12:01:15.485Z,66.30
2022-10-05T12:04:00.641Z,66.20
2022-10-05T12:06:46.231Z,66.20
2022-10-05T12:09:18.280Z,66.20
2022-10-05T12:11:47.581Z,66.30
2022-10-05T12:14:21.366Z,66.20
2022-10-05T12:16:58.977Z,66.30
2022-10-05T12:19:31.586Z,66.10
2022-10-05T12:22:15.226Z,66.10
2022-10-05T12:24:44.728Z,66.90
2022-10-05T12:27:15.289Z,66.10
2022-10-05T12:29:44.013Z,66.10
2022-10-05T12:32:13.335Z,66.60
2022-10-05T12:34:42.900Z,66.20
2022-10-05T12:37:36.665Z,66.10
2022-10-05T12:40:06.150Z,66.10
2022-10-05T12:42:56.576Z,66.10
2022-10-05T12:45:43.452Z,66.10
2022-10-05T12:48:21.376Z,66.00
2022-10-05T12:50:56.741Z,66.00
2022-10-05T12:53:26.027Z,66.10
2022-10-05T12:55:55.491Z,65.80
2022-10-05T12:58:25.098Z,66.10
2022-10-05T13:00:58.125Z,66.00
2022-10-05T13:03:26.375Z,65.90
2022-10-05T13:06:13.194Z,66.00
2022-10-05T13:08:51.333Z,65.90
2022-10-05T13:11:27.287Z,65.90
2022-10-05T13:14:20.004Z,65.90
2022-10-05T13:16:54.771Z,65.80
2022-10-05T13:19:40.634Z,66.00
2022-10-05T13:22:07.120Z,65.90
2022-10-05T13:24:33.602Z,66.00
2022-10-05T13:27:08.416Z,65.90
2022-10-05T13:29:37.387Z,66.00
2022-10-05T13:32:07.278Z,66.70
2022-10-05T13:34:37.347Z,65.90
2022-10-05T13:37:22.492Z,65.80
2022-10-05T13:39:58.613Z,65.90
2022-10-05T13:42:30.802Z,65.80
2022-10-05T13:45:00.291Z,65.80
2022-10-05T13:47:29.544Z,65.90
2022-10-05T13:50:17.415Z,65.80
2022-10-05T13:52:43.882Z,65.80
2022-10-05T13:55:29.295Z,65.90
2022-10-05T13:58:05.571Z,65.90
2022-10-05T14:00:34.684Z,65.90
2022-10-05T14:03:01.919Z,65.90
2022-10-05T14:05:30.145Z,65.80
2022-10-05T14:08:02.656Z,65.70
2022-10-05T14:10:43.430Z,65.80
2022-10-05T14:13:28.814Z,65.90
2022-10-05T14:15:56.773Z,65.80
2022-10-05T14:18:24.703Z,65.80
2022-10-05T14:20:58.209Z,65.70
2022-10-05T14:23:27.114Z,65.80
2022-10-05T14:25:54.266Z,65.80
2022-10-05T14:28:20.935Z,65.70
2022-10-05T14:30:59.005Z,65.80
2022-10-05T14:33:30.511Z,65.70
2022-10-05T14:35:57.864Z,65.70
2022-10-05T14:38:26.277Z,65.70
2022-10-05T14:41:02.564Z,65.70
2022-10-05T14:43:29.441Z,65.60
2022-10-05T14:45:57.843Z,65.60
2022-10-05T14:48:27.883Z,65.50
2022-10-05T14:50:59.248Z,65.60
2022-10-05T14:53:37.311Z,65.50
2022-10-05T14:56:17.157Z,65.60
2022-10-05T14:58:55.527Z,65.50
2022-10-05T15:01:27.950Z,65.40
2022-10-05T15:04:21.078Z,65.40
2022-10-05T15:06:58.551Z,65.40
2022-10-05T15:09:39.559Z,65.30
2022-10-05T15:12:06.387Z,65.30
2022-10-05T15:14:37.997Z,65.30
2022-10-05T15:17:11.258Z,65.30
2022-10-05T15:19:53.100Z,65.30
2022-10-05T15:22:22.435Z,65.30
2022-10-05T15:25:02.710Z,65.30
2022-10-05T15:27:49.161Z,65.30
2022-10-05T15:30:18.093Z,65.20
2022-10-05T15:33:05.136Z,65.20
2022-10-05T15:35:38.353Z,65.20
2022-10-05T15:38:25.812Z,65.00
2022-10-05T15:41:11.235Z,65.10
2022-10-05T15:43:58.406Z,65.30
2022-10-05T15:46:24.994Z,65.00
2022-10-05T15:48:54.649Z,65.00
2022-10-05T15:51:26.319Z,65.30
2022-10-05T15:54:20.197Z,65.90
2022-10-05T15:56:56.339Z,65.20
2022-10-05T15:59:38.557Z,65.50
2022-10-05T16:02:07.357Z,65.80
2022-10-05T16:04:42.298Z,65.30
2022-10-05T16:07:31.155Z,65.30
2022-10-05T16:10:03.611Z,65.30
2022-10-05T16:12:42.755Z,66.10
2022-10-05T16:15:16.433Z,66.50
2022-10-05T16:17:47.857Z,65.80
2022-10-05T16:20:20.595Z,66.00
2022-10-05T16:22:50.172Z,65.80
2022-10-05T16:25:23.845Z,65.70
2022-10-05T16:27:56.397Z,65.80
2022-10-05T16:30:23.151Z,65.90
2022-10-05T16:32:53.627Z,65.80
2022-10-05T16:35:20.400Z,65.80
2022-10-05T16:38:05.750Z,65.50
2022-10-05T16:40:36.574Z,65.90
2022-10-05T16:43:08.943Z,65.40
2022-10-05T16:45:46.056Z,65.80
2022-10-05T16:48:16.672Z,65.60
2022-10-05T16:50:54.989Z,65.60
2022-10-05T16:53:25.396Z,65.70
2022-10-05T16:55:54.376Z,65.90
2022-10-05T16:58:25.598Z,66.00
2022-10-05T17:00:55.008Z,65.80
2022-10-05T17:03:21.771Z,65.80
2022-10-05T17:06:00.280Z,65.80
2022-10-05T17:08:53.071Z,65.80
2022-10-05T17:11:19.544Z,66.10
2022-10-05T17:13:55.764Z,65.50
2022-10-05T17:16:30.389Z,66.20
2022-10-05T17:19:26.208Z,66.00
2022-10-05T17:22:00.332Z,66.40
2022-10-05T17:24:44.938Z,66.60
2022-10-05T17:27:30.346Z,65.80
2022-10-05T17:30:15.591Z,66.30
2022-10-05T17:32:55.615Z,65.80
2022-10-05T17:35:40.787Z,66.00
2022-10-05T17:38:15.110Z,66.00
2022-10-05T17:41:03.051Z,66.50
2022-10-05T17:43:30.715Z,66.20
2022-10-05T17:46:03.355Z,66.30
2022-10-05T17:48:41.498Z,66.80
2022-10-05T17:51:34.095Z,66.70
2022-10-05T17:54:35.594Z,66.40
2022-10-05T17:57:02.715Z,67.00
2022-10-05T17:59:46.563Z,65.90
2022-10-05T18:02:14.685Z,66.30
2022-10-05T18:04:48.726Z,65.90
2022-10-05T18:07:19.488Z,66.20
2022-10-05T18:09:55.008Z,66.10
2022-10-05T18:12:21.465Z,66.40
2022-10-05T18:14:57.323Z,66.20
2022-10-05T18:17:35.870Z,66.30
2022-10-05T18:20:21.716Z,66.50
2022-10-05T18:22:50.848Z,66.50
2022-10-05T18:25:20.323Z,66.30
2022-10-05T18:27:56.281Z,66.60
2022-10-05T18:30:24.018Z,66.10
2022-10-05T18:33:15.828Z,66.50
2022-10-05T18:36:05.796Z,66.60
2022-10-05T18:38:51.258Z,67.20
2022-10-05T18:41:31.320Z,66.50
2022-10-05T18:44:15.759Z,66.60
2022-10-05T18:47:05.612Z,66.30
2022-10-05T18:49:39.921Z,66.10
2022-10-05T18:52:16.246Z,65.70
2022-10-05T18:54:42.717Z,65.70
2022-10-05T18:57:31.573Z,66.00
2022-10-05T19:00:03.658Z,66.70
2022-10-05T19:02:30.258Z,66.60
2022-10-05T19:05:23.750Z,66.80
2022-10-05T19:08:08.616Z,66.00
2022-10-05T19:10:37.916Z,66.70
2022-10-05T19:13:25.978Z,66.90
2022-10-05T19:16:03.061Z,66.90
2022-10-05T19:18:48.602Z,66.80
2022-10-05T19:21:35.463Z,66.50
2022-10-05T19:24:18.040Z,66.30
2022-10-05T19:26:56.599Z,66.30
2022-10-05T19:29:27.022Z,66.60
2022-10-05T19:31:55.210Z,66.80
2022-10-05T19:34:37.278Z,67.10
2022-10-05T19:37:24.139Z,67.50
2022-10-05T19:39:54.195Z,67.20
2022-10-05T19:42:41.213Z,67.10
2022-10-05T19:45:27.384Z,66.60
2022-10-05T19:47:56.984Z,66.70
2022-10-05T19:50:23.589Z,66.90
2022-10-05T19:52:52.041Z,67.00
2022-10-05T19:55:22.201Z,67.00
2022-10-05T19:57:50.223Z,68.00
2022-10-05T20:00:24.730Z,67.50
2022-10-05T20:02:52.169Z,68.30
2022-10-05T20:05:19.059Z,68.70
2022-10-05T20:07:45.692Z,68.80
2022-10-05T20:10:22.031Z,68.70
2022-10-05T20:12:53.656Z,68.80
2022-10-05T20:15:39.994Z,69.00
2022-10-05T20:18:44.212Z,68.80
2022-10-05T20:21:30.675Z,69.10
2022-10-05T20:24:09.442Z,69.20
2022-10-05T20:27:06.665Z,69.40
2022-10-05T20:29:37.417Z,69.30
2022-10-05T20:32:09.827Z,69.60
2022-10-05T20:34:37.259Z,69.50
2022-10-05T20:37:03.892Z,69.40
2022-10-05T20:39:31.279Z,69.60
2022-10-05T20:41:58.612Z,69.70
2022-10-05T20:44:25.880Z,69.70
2022-10-05T20:46:55.557Z,70.00
2022-10-05T20:49:23.594Z,70.00
2022-10-05T20:51:50.077Z,69.60
2022-10-05T20:54:18.898Z,68.70
2022-10-05T20:56:48.417Z,68.60
2022-10-05T20:59:15.100Z,68.50
2022-10-05T21:01:45.243Z,69.20
2022-10-05T21:04:11.766Z,70.00
2022-10-05T21:06:38.255Z,70.10
2022-10-05T21:09:04.751Z,70.30
2022-10-05T21:11:31.266Z,70.50
2022-10-05T21:14:00.005Z,70.70
2022-10-05T21:16:30.253Z,70.80
2022-10-05T21:18:56.784Z,70.90
2022-10-05T21:21:26.227Z,71.10
2022-10-05T21:23:52.847Z,71.10
2022-10-05T21:26:19.378Z,71.30
2022-10-05T21:28:45.980Z,71.30
2022-10-05T21:31:12.625Z,71.40
2022-10-05T21:33:39.256Z,71.40
2022-10-05T21:36:05.791Z,71.50
2022-10-05T21:38:32.280Z,71.50
2022-10-05T21:40:58.813Z,71.60
2022-10-05T21:43:25.730Z,71.50
2022-10-05T21:45:53.870Z,71.60
2022-10-05T21:48:20.566Z,71.70
2022-10-05T21:50:47.314Z,71.80
2022-10-05T21:53:16.122Z,71.80
2022-10-05T21:55:45.089Z,71.90
2022-10-05T21:58:13.026Z,71.90
2022-10-05T22:00:40.977Z,71.90
2022-10-05T22:03:08.576Z,71.90
2022-10-05T22:05:35.566Z,71.90
2022-10-05T22:08:02.982Z,72.00
2022-10-05T22:10:29.817Z,72.10
2022-10-05T22:13:00.497Z,72.10
2022-10-05T22:15:27.601Z,72.10
2022-10-05T22:17:54.205Z,72.30
2022-10-05T22:20:21.746Z,72.10
2022-10-05T22:22:48.311Z,72.30
2022-10-05T22:25:15.491Z,72.20
2022-10-05T22:27:42.834Z,72.10
2022-10-05T22:30:09.581Z,72.40
2022-10-05T22:32:36.104Z,73.10
2022-10-05T22:35:02.595Z,72.20
2022-10-05T22:37:29.090Z,72.30
2022-10-05T22:39:55.644Z,72.20
2022-10-05T22:42:22.193Z,72.40
2022-10-05T22:44:48.682Z,72.30
2022-10-05T22:47:15.367Z,72.40
2022-10-05T22:49:41.853Z,72.40
2022-10-05T22:52:08.396Z,72.40
2022-10-05T22:54:37.299Z,72.50
2022-10-05T22:57:04.055Z,72.40
2022-10-05T22:59:30.933Z,72.50
2022-10-05T23:01:57.577Z,72.50
2022-10-05T23:04:24.150Z,72.70
2022-10-05T23:06:50.643Z,73.20
2022-10-05T23:09:17.152Z,72.50
2022-10-05T23:11:43.640Z,72.50
2022-10-05T23:14:10.150Z,72.50
2022-10-05T23:16:36.651Z,72.50
2022-10-05T23:19:03.209Z,72.60
2022-10-05T23:21:30.477Z,72.40
2022-10-05T23:23:57.001Z,72.50
2022-10-05T23:26:24.274Z,72.60
2022-10-05T23:28:50.886Z,72.60
2022-10-05T23:31:18.936Z,72.70
2022-10-05T23:33:45.486Z,72.50
2022-10-05T23:36:13.651Z,72.60
2022-10-05T23:38:40.130Z,72.60
2022-10-05T23:41:07.463Z,72.90
2022-10-05T23:43:34.213Z,72.70
2022-10-05T23:46:01.574Z,72.70
2022-10-05T23:48:28.390Z,72.60
2022-10-05T23:50:55.652Z,72.60
2022-10-05T23:53:22.591Z,72.60
2022-10-05T23:55:49.554Z,72.60
2022-10-05T23:58:16.317Z,72.50
